METAR AND TAF INFORMATION
METAR FOR EHGR
ADDS - METARS form results

(0056 UTC 25 September 2022)
Data provider http://aviationweather.gov/metar/data/
 
METAR text: EHGR 250025Z AUTO 33003KT 290V010 9999 NCD 09/08 Q1016 BLU RMK CB INFO NOT AVBL
Conditions at: EHGR (GILZE-RIJEN RNLA, NL) observed 0025 UTC 25 September 2022
Temperature: 9.0°C (48°F)
Dewpoint: 8.0°C (46°F) [RH = 93%]
Pressure (altimeter): 30.00 inches Hg (1016.0 mb)
Winds: from the NNW (330 degrees) at 3 MPH (3 knots; 1.5 m/s)
Visibility: 6 or more miles (10+ km)
Ceiling: at least 12,000 feet AGL
Clouds: sky clear below 12,000 feet AGL
Weather: no significant weather observed at this time

 AIRPORT MAP

 RUNWAY INFORMATION
Runway 02 Runway length 6549 ft Runway width 98 ft
Runway elevation 49 ft Runway displaced threshold 191 ft Runway heading 18
Runway 20 Runway length 6549 ft Runway width 98 ft
Runway elevation 40 ft Runway displaced threshold 192 ft Runway heading 198
Runway 10 Runway length 9118 ft Runway width 148 ft
Runway elevation 42 ft Runway displaced threshold 427 ft Runway heading 100
Runway 28 Runway length 9118 ft Runway width 148 ft
Runway elevation 38 ft Runway displaced threshold 331 ft Runway heading 280

 AIRPORT FREQUENCIES
Type ARR Name RAPCON WES Frequency 123.575 MHZ
Type GND Name GND Frequency 23.492 MHZ
Type TWR Name TWR Frequency 125.325 MHZ

 AIRPORT NEAR NAVIGATION AIDS
Type TACAN Name Gilze Rijen Frequency 116400 KHZ